Hs Carmen — A8KD6 — position and weather

sailwx.info

Track history (hours):
 
Tides and Currents Weather Stations Pressure Air Temp Water Temp Dewpoint Dewpoint Depression Visibility Wind Speed Wind Dir Waves Ship Positions

Hs Carmen

Last reported at 2017-Nov-28 15:37 UTC. Time now 2017-Dec-13 13:03 UTC.
Position N 40°25' W 073°48'.
Warning: this ship's position is 14 days out of date.

Length 237 m; draft 8.4 m.

Type: Tanker. MMSI: 636091174.

Date/timePositionNaut miles runAvg speedWind from/ knotsBaromVisibWave heightAir tempDewpointWater temp
2017-Nov-28 15:37N 40°25' W 073°48'5 8.7
2017-Nov-28 15:00N 40°27' W 073°54'510.7
2017-Nov-28 14:30N 40°29' W 074°01'611.4
2017-Nov-28 14:00N 40°30' W 074°08'5 9.4
2017-Nov-28 13:30N 40°29' W 074°14'3 6.3
2017-Nov-28 13:00N 40°32' W 074°15'2 4.7
2017-Nov-28 12:30N 40°34' W 074°13'2 4.8
2017-Nov-28 12:00N 40°36' W 074°12'2 0.2
2017-Nov-28 04:24N 40°38' W 074°12'0 0.0
2017-Nov-27 15:03N 40°38' W 074°12'0 0.0
2017-Nov-27 15:00N 40°38' W 074°12'0 0.7
2017-Nov-27 14:30N 40°38' W 074°12'3 5.6
2017-Nov-27 14:00N 40°39' W 074°08'3 6.6
2017-Nov-27 13:30N 40°39' W 074°04'2 3.6
2017-Nov-27 12:58N 40°37' W 074°03'0 0.1
2017-Nov-27 12:25N 40°37' W 074°03'0 0.0
2017-Nov-27 11:55N 40°37' W 074°03'0 0.0
2017-Nov-27 11:28N 40°37' W 074°03'0 0.1
2017-Nov-27 10:58N 40°37' W 074°03'0 0.1
2017-Nov-27 10:28N 40°37' W 074°03'0 0.1
2017-Nov-27 09:55N 40°37' W 074°03'0 0.3
2017-Nov-27 09:28N 40°37' W 074°03'0 0.3
2017-Nov-27 08:49N 40°37' W 074°03'0 0.1
2017-Nov-27 08:28N 40°37' W 074°03'0 0.1
2017-Nov-27 07:55N 40°37' W 074°03'0 0.0
2017-Nov-27 07:19N 40°37' W 074°03'0 0.0
2017-Nov-27 06:55N 40°37' W 074°03'0 0.0
2017-Nov-27 06:25N 40°37' W 074°03'0 0.0
2017-Nov-27 05:55N 40°37' W 074°03'0 0.1
2017-Nov-27 05:28N 40°37' W 074°03'0 0.0
2017-Nov-27 04:52N 40°37' W 074°03'0 0.2
2017-Nov-27 04:28N 40°37' W 074°03'0 0.3
2017-Nov-27 03:55N 40°37' W 074°03'0 0.1
2017-Nov-27 03:28N 40°37' W 074°03'0 0.0
2017-Nov-27 02:58N 40°37' W 074°03'0 0.0
2017-Nov-27 02:28N 40°37' W 074°03'0 0.1
2017-Nov-27 01:58N 40°37' W 074°03'0 0.1
2017-Nov-27 01:28N 40°37' W 074°03'0 0.0
2017-Nov-27 00:58N 40°37' W 074°03'0 0.0
2017-Nov-27 00:28N 40°37' W 074°03'0 0.0
2017-Nov-26 23:58N 40°37' W 074°03'0 0.0
2017-Nov-26 23:28N 40°37' W 074°03'0 0.0
2017-Nov-26 22:58N 40°37' W 074°03'0 0.0
2017-Nov-26 22:28N 40°37' W 074°03'0 0.1
2017-Nov-26 21:58N 40°37' W 074°03'0 0.0
2017-Nov-26 21:28N 40°37' W 074°03'0 0.1
2017-Nov-26 20:58N 40°37' W 074°03'0 0.4
2017-Nov-26 20:28N 40°37' W 074°03'0 0.2
2017-Nov-26 19:55N 40°37' W 074°03'0 0.1
2017-Nov-26 19:28N 40°37' W 074°03'0 0.0
2017-Nov-26 18:58N 40°37' W 074°03'0 0.0
2017-Nov-26 18:25N 40°37' W 074°03'0 0.1
2017-Nov-26 17:58N 40°37' W 074°03'0 0.2
2017-Nov-26 17:28N 40°37' W 074°03'0 0.1
2017-Nov-26 16:58N 40°37' W 074°03'0 0.0
2017-Nov-26 16:28N 40°37' W 074°03'0 0.1
2017-Nov-26 15:58N 40°37' W 074°03'0 0.0
2017-Nov-26 15:28N 40°37' W 074°03'0 0.1
2017-Nov-26 14:58N 40°37' W 074°03'0 0.1
2017-Nov-26 14:28N 40°37' W 074°03'0 0.0
2017-Nov-26 13:58N 40°37' W 074°03'0 0.0
2017-Nov-26 13:25N 40°37' W 074°03'0 0.1
2017-Nov-26 12:58N 40°37' W 074°03'0 0.1
2017-Nov-26 12:28N 40°37' W 074°03'0 0.0
2017-Nov-26 11:58N 40°37' W 074°03'0 0.0
2017-Nov-26 11:28N 40°37' W 074°03'0 0.0
2017-Nov-26 10:58N 40°37' W 074°03'0 0.0
2017-Nov-26 10:28N 40°37' W 074°03'0 0.0
2017-Nov-26 09:58N 40°37' W 074°03'0 0.0
2017-Nov-26 09:28N 40°37' W 074°03'0 0.0
2017-Nov-26 08:55N 40°37' W 074°03'0 0.0
2017-Nov-26 08:28N 40°37' W 074°03'0 0.0
2017-Nov-26 07:58N 40°37' W 074°03'0 0.2
2017-Nov-26 07:28N 40°37' W 074°03'0 0.2
2017-Nov-26 06:58N 40°37' W 074°03'0 0.1
2017-Nov-26 06:28N 40°37' W 074°03'0 0.2
2017-Nov-26 05:58N 40°37' W 074°03'0 0.0
2017-Nov-26 05:28N 40°37' W 074°03'0 0.0
2017-Nov-26 04:58N 40°37' W 074°03'0 0.1
2017-Nov-26 04:28N 40°37' W 074°03'0 0.1
2017-Nov-26 03:55N 40°37' W 074°03'0 0.3
2017-Nov-26 03:28N 40°37' W 074°03'0 0.3
2017-Nov-26 02:58N 40°37' W 074°03'0 0.0
2017-Nov-26 02:28N 40°37' W 074°03'0 0.0
2017-Nov-26 01:58N 40°37' W 074°03'0 0.1
2017-Nov-26 01:28N 40°37' W 074°03'0 0.0
2017-Nov-26 00:58N 40°37' W 074°03'0 0.0
2017-Nov-26 00:25N 40°37' W 074°03'0 0.0
2017-Nov-25 23:58N 40°37' W 074°03'0 0.1
2017-Nov-25 23:28N 40°37' W 074°03'0 0.1
2017-Nov-25 22:58N 40°37' W 074°03'0 0.1
2017-Nov-25 22:28N 40°37' W 074°03'0 0.1
2017-Nov-25 21:58N 40°37' W 074°03'0 0.0
2017-Nov-25 21:28N 40°37' W 074°03'0 0.1
2017-Nov-25 20:58N 40°37' W 074°03'0 0.5
2017-Nov-25 20:28N 40°37' W 074°03'0 0.2
2017-Nov-25 19:58N 40°37' W 074°03'0 0.0
2017-Nov-25 19:28N 40°37' W 074°03'0 0.0
2017-Nov-25 18:55N 40°37' W 074°03'0 0.0
2017-Nov-25 18:28N 40°37' W 074°03'0 0.0
2017-Nov-25 17:58N 40°37' W 074°03'0 0.0
2017-Nov-25 17:28N 40°37' W 074°03'0 0.0
2017-Nov-25 16:58N 40°37' W 074°03'0 0.0
2017-Nov-25 16:28N 40°37' W 074°03'0 0.1
2017-Nov-25 15:58N 40°37' W 074°03'0 0.1
2017-Nov-25 15:25N 40°37' W 074°03'0 0.0
2017-Nov-25 14:58N 40°37' W 074°03'0 0.1
2017-Nov-25 14:28N 40°37' W 074°03'0 0.2
2017-Nov-25 13:55N 40°37' W 074°03'0 0.4
2017-Nov-25 13:28N 40°37' W 074°03'0 0.1
2017-Nov-25 12:58N 40°37' W 074°03'0 0.0
2017-Nov-25 12:28N 40°37' W 074°03'0 0.1
2017-Nov-25 11:58N 40°37' W 074°03'0 0.2
2017-Nov-25 11:28N 40°37' W 074°03'1 2.5
2017-Nov-25 11:01N 40°36' W 074°03'4 8.6
2017-Nov-25 10:30N 40°32' W 074°01'510.6
2017-Nov-25 10:00N 40°29' W 073°55'2 4.8
2017-Nov-25 09:30N 40°28' W 073°58'4 8.4
2017-Nov-25 09:01N 40°29' W 074°03'5 9.7
2017-Nov-25 08:30N 40°30' W 074°10'4 7.6
2017-Nov-25 08:00N 40°29' W 074°15'2 4.5
2017-Nov-25 07:30N 40°32' W 074°15'2 3.8
2017-Nov-25 07:00N 40°33' W 074°14'2 4.0
2017-Nov-25 06:30N 40°35' W 074°13'2 3.4
2017-Nov-25 06:00N 40°37' W 074°12'1 0.1
2017-Nov-24 06:07N 40°38' W 074°12'0 0.0
2017-Nov-24 06:00N 40°38' W 074°12'0 0.0
2017-Nov-24 05:30N 40°38' W 074°12'0 0.0
2017-Nov-24 05:00N 40°38' W 074°12'1 2.1
2017-Nov-24 04:30N 40°39' W 074°11'3 6.3
2017-Nov-24 04:00N 40°39' W 074°07'3 5.6
2017-Nov-24 03:30N 40°38' W 074°03'1 1.3
2017-Nov-24 02:58N 40°37' W 074°03'0 0.1
2017-Nov-24 02:28N 40°37' W 074°03'0 0.1
2017-Nov-24 01:58N 40°37' W 074°03'0 0.3
2017-Nov-24 01:28N 40°37' W 074°03'0 0.2
2017-Nov-24 00:55N 40°37' W 074°03'0 0.0
2017-Nov-24 00:25N 40°37' W 074°03'0 0.1
2017-Nov-23 23:58N 40°37' W 074°03'0 0.1
2017-Nov-23 23:28N 40°37' W 074°03'0 0.0
2017-Nov-23 22:58N 40°37' W 074°03'0 0.0
2017-Nov-23 22:28N 40°37' W 074°03'0 0.1
2017-Nov-23 21:58N 40°37' W 074°03'0 0.0
2017-Nov-23 21:28N 40°37' W 074°03'0 0.0
2017-Nov-23 20:58N 40°37' W 074°03'0 0.1
2017-Nov-23 20:28N 40°37' W 074°03'0 0.1
2017-Nov-23 19:58N 40°37' W 074°03'0 0.0
2017-Nov-23 19:28N 40°37' W 074°03'0 0.1
2017-Nov-23 18:58N 40°37' W 074°03'0 0.5
2017-Nov-23 18:28N 40°37' W 074°03'0 0.2
2017-Nov-23 17:58N 40°37' W 074°04'0 0.1
2017-Nov-23 17:28N 40°37' W 074°04'0 0.0
2017-Nov-23 16:58N 40°37' W 074°04'0 0.0
2017-Nov-23 16:28N 40°37' W 074°04'0 0.0
2017-Nov-23 15:58N 40°37' W 074°04'0 0.0
2017-Nov-23 15:28N 40°37' W 074°04'0 0.0
2017-Nov-23 14:58N 40°37' W 074°04'0 0.0
2017-Nov-23 14:25N 40°37' W 074°04'0 0.1
2017-Nov-23 13:58N 40°37' W 074°04'0 0.0
2017-Nov-23 13:28N 40°37' W 074°04'0 0.1
2017-Nov-23 12:58N 40°37' W 074°03'0 0.3
2017-Nov-23 12:28N 40°37' W 074°03'0 0.4
2017-Nov-23 11:58N 40°37' W 074°03'0 0.1
2017-Nov-23 11:28N 40°37' W 074°03'0 0.0
2017-Nov-23 10:58N 40°37' W 074°03'0 0.0
2017-Nov-23 10:25N 40°37' W 074°03'0 0.0
2017-Nov-23 09:58N 40°37' W 074°03'0 0.0
2017-Nov-23 09:28N 40°37' W 074°03'0 0.0
2017-Nov-23 08:58N 40°37' W 074°03'0 0.0
2017-Nov-23 08:28N 40°37' W 074°03'0 0.0
2017-Nov-23 07:58N 40°37' W 074°03'0 0.0
2017-Nov-23 07:28N 40°37' W 074°03'0 0.0
2017-Nov-23 06:58N 40°37' W 074°03'0 0.4
2017-Nov-23 06:28N 40°37' W 074°04'0 0.3
2017-Nov-23 05:58N 40°37' W 074°04'0 0.1
2017-Nov-23 05:28N 40°37' W 074°04'0 0.0
2017-Nov-23 04:58N 40°37' W 074°04'0 0.0
2017-Nov-23 04:25N 40°37' W 074°04'0 0.0
2017-Nov-23 03:58N 40°37' W 074°04'0 0.1
2017-Nov-23 03:28N 40°37' W 074°03'0 0.0
2017-Nov-23 02:58N 40°37' W 074°03'0 0.3
2017-Nov-23 02:07N 40°37' W 074°03'0 0.2
2017-Nov-23 01:49N 40°37' W 074°03'0 0.0
2017-Nov-23 01:19N 40°37' W 074°03'0 0.2
2017-Nov-23 00:58N 40°37' W 074°03'0 0.0
2017-Nov-23 00:25N 40°37' W 074°03'0 0.1
2017-Nov-23 00:00N 40°37' W 074°03'0 0.0
2017-Nov-22 23:30N 40°37' W 074°03'0 0.1
2017-Nov-22 23:00N 40°37' W 074°03'0 0.0
2017-Nov-22 22:30N 40°37' W 074°03'0 0.0
2017-Nov-22 22:00N 40°37' W 074°03'0 0.4
2017-Nov-22 21:30N 40°37' W 074°03'1 2.8
2017-Nov-22 21:00N 40°36' W 074°02'3 5.7
2017-Nov-22 20:30N 40°33' W 074°01'4 8.8
2017-Nov-22 20:00N 40°30' W 073°57'5 9.6
2017-Nov-22 19:30N 40°28' W 073°51'  
Track history (hours):
 
Tides and Currents Weather Stations Pressure Air Temp Water Temp Dewpoint Dewpoint Depression Visibility Wind Speed Wind Dir Waves Ship Positions

Hs Carmen

Last reported at 2017-Nov-28 15:37 UTC. Time now 2017-Dec-13 13:03 UTC.
Position N 40°25' W 073°48'.
Warning: this ship's position is 14 days out of date.

Length 237 m; draft 8.4 m.

Type: Tanker. MMSI: 636091174.

Date/timePositionNaut miles runAvg speedWind from/ knotsBaromVisibWave heightAir tempDewpointWater temp
2017-Nov-28 15:37N 40°25' W 073°48'5 8.7
2017-Nov-28 15:00N 40°27' W 073°54'510.7
2017-Nov-28 14:30N 40°29' W 074°01'611.4
2017-Nov-28 14:00N 40°30' W 074°08'5 9.4
2017-Nov-28 13:30N 40°29' W 074°14'3 6.3
2017-Nov-28 13:00N 40°32' W 074°15'2 4.7
2017-Nov-28 12:30N 40°34' W 074°13'2 4.8
2017-Nov-28 12:00N 40°36' W 074°12'2 0.2
2017-Nov-28 04:24N 40°38' W 074°12'0 0.0
2017-Nov-27 15:03N 40°38' W 074°12'0 0.0
2017-Nov-27 15:00N 40°38' W 074°12'0 0.7
2017-Nov-27 14:30N 40°38' W 074°12'3 5.6
2017-Nov-27 14:00N 40°39' W 074°08'3 6.6
2017-Nov-27 13:30N 40°39' W 074°04'2 3.6
2017-Nov-27 12:58N 40°37' W 074°03'0 0.1
2017-Nov-27 12:25N 40°37' W 074°03'0 0.0
2017-Nov-27 11:55N 40°37' W 074°03'0 0.0
2017-Nov-27 11:28N 40°37' W 074°03'0 0.1
2017-Nov-27 10:58N 40°37' W 074°03'0 0.1
2017-Nov-27 10:28N 40°37' W 074°03'0 0.1
2017-Nov-27 09:55N 40°37' W 074°03'0 0.3
2017-Nov-27 09:28N 40°37' W 074°03'0 0.3
2017-Nov-27 08:49N 40°37' W 074°03'0 0.1
2017-Nov-27 08:28N 40°37' W 074°03'0 0.1
2017-Nov-27 07:55N 40°37' W 074°03'0 0.0
2017-Nov-27 07:19N 40°37' W 074°03'0 0.0
2017-Nov-27 06:55N 40°37' W 074°03'0 0.0
2017-Nov-27 06:25N 40°37' W 074°03'0 0.0
2017-Nov-27 05:55N 40°37' W 074°03'0 0.1
2017-Nov-27 05:28N 40°37' W 074°03'0 0.0
2017-Nov-27 04:52N 40°37' W 074°03'0 0.2
2017-Nov-27 04:28N 40°37' W 074°03'0 0.3
2017-Nov-27 03:55N 40°37' W 074°03'0 0.1
2017-Nov-27 03:28N 40°37' W 074°03'0 0.0
2017-Nov-27 02:58N 40°37' W 074°03'0 0.0
2017-Nov-27 02:28N 40°37' W 074°03'0 0.1
2017-Nov-27 01:58N 40°37' W 074°03'0 0.1
2017-Nov-27 01:28N 40°37' W 074°03'0 0.0
2017-Nov-27 00:58N 40°37' W 074°03'0 0.0
2017-Nov-27 00:28N 40°37' W 074°03'0 0.0
2017-Nov-26 23:58N 40°37' W 074°03'0 0.0
2017-Nov-26 23:28N 40°37' W 074°03'0 0.0
2017-Nov-26 22:58N 40°37' W 074°03'0 0.0
2017-Nov-26 22:28N 40°37' W 074°03'0 0.1
2017-Nov-26 21:58N 40°37' W 074°03'0 0.0
2017-Nov-26 21:28N 40°37' W 074°03'0 0.1
2017-Nov-26 20:58N 40°37' W 074°03'0 0.4
2017-Nov-26 20:28N 40°37' W 074°03'0 0.2
2017-Nov-26 19:55N 40°37' W 074°03'0 0.1
2017-Nov-26 19:28N 40°37' W 074°03'0 0.0
2017-Nov-26 18:58N 40°37' W 074°03'0 0.0
2017-Nov-26 18:25N 40°37' W 074°03'0 0.1
2017-Nov-26 17:58N 40°37' W 074°03'0 0.2
2017-Nov-26 17:28N 40°37' W 074°03'0 0.1
2017-Nov-26 16:58N 40°37' W 074°03'0 0.0
2017-Nov-26 16:28N 40°37' W 074°03'0 0.1
2017-Nov-26 15:58N 40°37' W 074°03'0 0.0
2017-Nov-26 15:28N 40°37' W 074°03'0 0.1
2017-Nov-26 14:58N 40°37' W 074°03'0 0.1
2017-Nov-26 14:28N 40°37' W 074°03'0 0.0
2017-Nov-26 13:58N 40°37' W 074°03'0 0.0
2017-Nov-26 13:25N 40°37' W 074°03'0 0.1
2017-Nov-26 12:58N 40°37' W 074°03'0 0.1
2017-Nov-26 12:28N 40°37' W 074°03'0 0.0
2017-Nov-26 11:58N 40°37' W 074°03'0 0.0
2017-Nov-26 11:28N 40°37' W 074°03'0 0.0
2017-Nov-26 10:58N 40°37' W 074°03'0 0.0
2017-Nov-26 10:28N 40°37' W 074°03'0 0.0
2017-Nov-26 09:58N 40°37' W 074°03'0 0.0
2017-Nov-26 09:28N 40°37' W 074°03'0 0.0
2017-Nov-26 08:55N 40°37' W 074°03'0 0.0
2017-Nov-26 08:28N 40°37' W 074°03'0 0.0
2017-Nov-26 07:58N 40°37' W 074°03'0 0.2
2017-Nov-26 07:28N 40°37' W 074°03'0 0.2
2017-Nov-26 06:58N 40°37' W 074°03'0 0.1
2017-Nov-26 06:28N 40°37' W 074°03'0 0.2
2017-Nov-26 05:58N 40°37' W 074°03'0 0.0
2017-Nov-26 05:28N 40°37' W 074°03'0 0.0
2017-Nov-26 04:58N 40°37' W 074°03'0 0.1
2017-Nov-26 04:28N 40°37' W 074°03'0 0.1
2017-Nov-26 03:55N 40°37' W 074°03'0 0.3
2017-Nov-26 03:28N 40°37' W 074°03'0 0.3
2017-Nov-26 02:58N 40°37' W 074°03'0 0.0
2017-Nov-26 02:28N 40°37' W 074°03'0 0.0
2017-Nov-26 01:58N 40°37' W 074°03'0 0.1
2017-Nov-26 01:28N 40°37' W 074°03'0 0.0
2017-Nov-26 00:58N 40°37' W 074°03'0 0.0
2017-Nov-26 00:25N 40°37' W 074°03'0 0.0
2017-Nov-25 23:58N 40°37' W 074°03'0 0.1
2017-Nov-25 23:28N 40°37' W 074°03'0 0.1
2017-Nov-25 22:58N 40°37' W 074°03'0 0.1
2017-Nov-25 22:28N 40°37' W 074°03'0 0.1
2017-Nov-25 21:58N 40°37' W 074°03'0 0.0
2017-Nov-25 21:28N 40°37' W 074°03'0 0.1
2017-Nov-25 20:58N 40°37' W 074°03'0 0.5
2017-Nov-25 20:28N 40°37' W 074°03'0 0.2
2017-Nov-25 19:58N 40°37' W 074°03'0 0.0
2017-Nov-25 19:28N 40°37' W 074°03'0 0.0
2017-Nov-25 18:55N 40°37' W 074°03'0 0.0
2017-Nov-25 18:28N 40°37' W 074°03'0 0.0
2017-Nov-25 17:58N 40°37' W 074°03'0 0.0
2017-Nov-25 17:28N 40°37' W 074°03'0 0.0
2017-Nov-25 16:58N 40°37' W 074°03'0 0.0
2017-Nov-25 16:28N 40°37' W 074°03'0 0.1
2017-Nov-25 15:58N 40°37' W 074°03'0 0.1
2017-Nov-25 15:25N 40°37' W 074°03'0 0.0
2017-Nov-25 14:58N 40°37' W 074°03'0 0.1
2017-Nov-25 14:28N 40°37' W 074°03'0 0.2
2017-Nov-25 13:55N 40°37' W 074°03'0 0.4
2017-Nov-25 13:28N 40°37' W 074°03'0 0.1
2017-Nov-25 12:58N 40°37' W 074°03'0 0.0
2017-Nov-25 12:28N 40°37' W 074°03'0 0.1
2017-Nov-25 11:58N 40°37' W 074°03'0 0.2
2017-Nov-25 11:28N 40°37' W 074°03'1 2.5
2017-Nov-25 11:01N 40°36' W 074°03'4 8.6
2017-Nov-25 10:30N 40°32' W 074°01'510.6
2017-Nov-25 10:00N 40°29' W 073°55'2 4.8
2017-Nov-25 09:30N 40°28' W 073°58'4 8.4
2017-Nov-25 09:01N 40°29' W 074°03'5 9.7
2017-Nov-25 08:30N 40°30' W 074°10'4 7.6
2017-Nov-25 08:00N 40°29' W 074°15'2 4.5
2017-Nov-25 07:30N 40°32' W 074°15'2 3.8
2017-Nov-25 07:00N 40°33' W 074°14'2 4.0
2017-Nov-25 06:30N 40°35' W 074°13'2 3.4
2017-Nov-25 06:00N 40°37' W 074°12'1 0.1
2017-Nov-24 06:07N 40°38' W 074°12'0 0.0
2017-Nov-24 06:00N 40°38' W 074°12'0 0.0
2017-Nov-24 05:30N 40°38' W 074°12'0 0.0
2017-Nov-24 05:00N 40°38' W 074°12'1 2.1
2017-Nov-24 04:30N 40°39' W 074°11'3 6.3
2017-Nov-24 04:00N 40°39' W 074°07'3 5.6
2017-Nov-24 03:30N 40°38' W 074°03'1 1.3
2017-Nov-24 02:58N 40°37' W 074°03'0 0.1
2017-Nov-24 02:28N 40°37' W 074°03'0 0.1
2017-Nov-24 01:58N 40°37' W 074°03'0 0.3
2017-Nov-24 01:28N 40°37' W 074°03'0 0.2
2017-Nov-24 00:55N 40°37' W 074°03'0 0.0
2017-Nov-24 00:25N 40°37' W 074°03'0 0.1
2017-Nov-23 23:58N 40°37' W 074°03'0 0.1
2017-Nov-23 23:28N 40°37' W 074°03'0 0.0
2017-Nov-23 22:58N 40°37' W 074°03'0 0.0
2017-Nov-23 22:28N 40°37' W 074°03'0 0.1
2017-Nov-23 21:58N 40°37' W 074°03'0 0.0
2017-Nov-23 21:28N 40°37' W 074°03'0 0.0
2017-Nov-23 20:58N 40°37' W 074°03'0 0.1
2017-Nov-23 20:28N 40°37' W 074°03'0 0.1
2017-Nov-23 19:58N 40°37' W 074°03'0 0.0
2017-Nov-23 19:28N 40°37' W 074°03'0 0.1
2017-Nov-23 18:58N 40°37' W 074°03'0 0.5
2017-Nov-23 18:28N 40°37' W 074°03'0 0.2
2017-Nov-23 17:58N 40°37' W 074°04'0 0.1
2017-Nov-23 17:28N 40°37' W 074°04'0 0.0
2017-Nov-23 16:58N 40°37' W 074°04'0 0.0
2017-Nov-23 16:28N 40°37' W 074°04'0 0.0
2017-Nov-23 15:58N 40°37' W 074°04'0 0.0
2017-Nov-23 15:28N 40°37' W 074°04'0 0.0
2017-Nov-23 14:58N 40°37' W 074°04'0 0.0
2017-Nov-23 14:25N 40°37' W 074°04'0 0.1
2017-Nov-23 13:58N 40°37' W 074°04'0 0.0
2017-Nov-23 13:28N 40°37' W 074°04'0 0.1
2017-Nov-23 12:58N 40°37' W 074°03'0 0.3
2017-Nov-23 12:28N 40°37' W 074°03'0 0.4
2017-Nov-23 11:58N 40°37' W 074°03'0 0.1
2017-Nov-23 11:28N 40°37' W 074°03'0 0.0
2017-Nov-23 10:58N 40°37' W 074°03'0 0.0
2017-Nov-23 10:25N 40°37' W 074°03'0 0.0
2017-Nov-23 09:58N 40°37' W 074°03'0 0.0
2017-Nov-23 09:28N 40°37' W 074°03'0 0.0
2017-Nov-23 08:58N 40°37' W 074°03'0 0.0
2017-Nov-23 08:28N 40°37' W 074°03'0 0.0
2017-Nov-23 07:58N 40°37' W 074°03'0 0.0
2017-Nov-23 07:28N 40°37' W 074°03'0 0.0
2017-Nov-23 06:58N 40°37' W 074°03'0 0.4
2017-Nov-23 06:28N 40°37' W 074°04'0 0.3
2017-Nov-23 05:58N 40°37' W 074°04'0 0.1
2017-Nov-23 05:28N 40°37' W 074°04'0 0.0
2017-Nov-23 04:58N 40°37' W 074°04'0 0.0
2017-Nov-23 04:25N 40°37' W 074°04'0 0.0
2017-Nov-23 03:58N 40°37' W 074°04'0 0.1
2017-Nov-23 03:28N 40°37' W 074°03'0 0.0
2017-Nov-23 02:58N 40°37' W 074°03'0 0.3
2017-Nov-23 02:07N 40°37' W 074°03'0 0.2
2017-Nov-23 01:49N 40°37' W 074°03'0 0.0
2017-Nov-23 01:19N 40°37' W 074°03'0 0.2
2017-Nov-23 00:58N 40°37' W 074°03'0 0.0
2017-Nov-23 00:25N 40°37' W 074°03'0 0.1
2017-Nov-23 00:00N 40°37' W 074°03'0 0.0
2017-Nov-22 23:30N 40°37' W 074°03'0 0.1
2017-Nov-22 23:00N 40°37' W 074°03'0 0.0
2017-Nov-22 22:30N 40°37' W 074°03'0 0.0
2017-Nov-22 22:00N 40°37' W 074°03'0 0.4
2017-Nov-22 21:30N 40°37' W 074°03'1 2.8
2017-Nov-22 21:00N 40°36' W 074°02'3 5.7
2017-Nov-22 20:30N 40°33' W 074°01'4 8.8
2017-Nov-22 20:00N 40°30' W 073°57'5 9.6
2017-Nov-22 19:30N 40°28' W 073°51'  

Dump ship's entire track history